sensor_id;sensor_type;location;lat;lon;timestamp;pressure;altitude;pressure_sealevel;temperature;humidity
68226;BME280;55045;49.410;11.030;2023-05-02T00:02:16;98124.38;;;6.29;100.00
68226;BME280;55045;49.410;11.030;2023-05-02T00:05:19;98110.22;;;6.42;100.00
68226;BME280;55045;49.410;11.030;2023-05-02T00:08:24;98120.28;;;6.23;100.00
68226;BME280;55045;49.410;11.030;2023-05-02T00:11:27;98106.41;;;6.27;100.00
68226;BME280;55045;49.410;11.030;2023-05-02T00:14:30;98115.34;;;6.16;100.00
68226;BME280;55045;49.410;11.030;2023-05-02T00:17:34;98104.84;;;6.50;100.00
68226;BME280;55045;49.410;11.030;2023-05-02T00:20:38;98099.56;;;6.26;100.00
68226;BME280;55045;49.410;11.030;2023-05-02T00:23:43;98100.31;;;6.02;100.00
68226;BME280;55045;49.410;11.030;2023-05-02T00:26:46;98108.06;;;6.00;100.00
68226;BME280;55045;49.410;11.030;2023-05-02T00:29:49;98102.88;;;6.03;100.00
68226;BME280;55045;49.410;11.030;2023-05-02T00:32:53;98104.59;;;6.01;100.00
68226;BME280;55045;49.410;11.030;2023-05-02T00:35:56;98101.91;;;6.06;100.00
68226;BME280;55045;49.410;11.030;2023-05-02T00:39:01;98105.34;;;6.06;100.00
68226;BME280;55045;49.410;11.030;2023-05-02T00:42:05;98101.59;;;5.87;100.00
68226;BME280;55045;49.410;11.030;2023-05-02T00:45:09;98105.72;;;5.94;100.00
68226;BME280;55045;49.410;11.030;2023-05-02T00:48:13;98109.03;;;6.26;100.00
68226;BME280;55045;49.410;11.030;2023-05-02T00:51:18;98107.47;;;5.92;100.00
68226;BME280;55045;49.410;11.030;2023-05-02T00:54:23;98109.56;;;5.78;100.00
68226;BME280;55045;49.410;11.030;2023-05-02T00:57:26;98114.03;;;5.73;100.00
68226;BME280;55045;49.410;11.030;2023-05-02T01:00:38;98113.03;;;5.77;100.00
68226;BME280;55045;49.410;11.030;2023-05-02T01:03:54;98122.97;;;5.60;100.00
68226;BME280;55045;49.410;11.030;2023-05-02T01:07:21;98116.22;;;5.56;100.00
68226;BME280;55045;49.410;11.030;2023-05-02T01:10:41;98095.59;;;5.57;100.00
68226;BME280;55045;49.410;11.030;2023-05-02T01:13:50;98119.63;;;5.56;100.00
68226;BME280;55045;49.410;11.030;2023-05-02T01:16:55;98111.09;;;5.56;100.00
68226;BME280;55045;49.410;11.030;2023-05-02T01:20:04;98116.75;;;5.67;100.00
68226;BME280;55045;49.410;11.030;2023-05-02T01:23:15;98125.28;;;5.69;100.00
68226;BME280;55045;49.410;11.030;2023-05-02T01:26:26;98103.41;;;5.84;100.00
68226;BME280;55045;49.410;11.030;2023-05-02T01:29:34;98122.06;;;5.62;100.00
68226;BME280;55045;49.410;11.030;2023-05-02T01:32:40;98121.47;;;5.53;100.00
68226;BME280;55045;49.410;11.030;2023-05-02T01:35:48;98106.25;;;5.74;100.00
68226;BME280;55045;49.410;11.030;2023-05-02T01:38:54;98121.13;;;5.65;100.00
68226;BME280;55045;49.410;11.030;2023-05-02T01:42:00;98122.13;;;5.59;100.00
68226;BME280;55045;49.410;11.030;2023-05-02T01:45:08;98104.31;;;5.53;100.00
68226;BME280;55045;49.410;11.030;2023-05-02T01:48:15;98118.72;;;5.59;100.00
68226;BME280;55045;49.410;11.030;2023-05-02T01:51:20;98105.84;;;5.59;100.00
68226;BME280;55045;49.410;11.030;2023-05-02T01:54:25;98128.34;;;5.50;100.00
68226;BME280;55045;49.410;11.030;2023-05-02T01:57:29;98128.34;;;5.50;100.00
68226;BME280;55045;49.410;11.030;2023-05-02T02:00:35;98127.03;;;5.37;100.00
68226;BME280;55045;49.410;11.030;2023-05-02T02:03:40;98128.94;;;5.29;100.00
68226;BME280;55045;49.410;11.030;2023-05-02T02:06:46;98130.72;;;5.27;100.00
68226;BME280;55045;49.410;11.030;2023-05-02T02:09:51;98129.88;;;5.27;100.00
68226;BME280;55045;49.410;11.030;2023-05-02T02:13:09;98140.34;;;5.19;100.00
68226;BME280;55045;49.410;11.030;2023-05-02T02:16:24;98115.03;;;5.05;100.00
68226;BME280;55045;49.410;11.030;2023-05-02T02:19:31;98138.88;;;5.10;100.00
68226;BME280;55045;49.410;11.030;2023-05-02T02:22:38;98137.47;;;5.31;100.00
68226;BME280;55045;49.410;11.030;2023-05-02T02:25:43;98130.31;;;5.42;100.00
68226;BME280;55045;49.410;11.030;2023-05-02T02:28:49;98140.72;;;5.38;100.00
68226;BME280;55045;49.410;11.030;2023-05-02T02:31:56;98144.56;;;5.23;100.00
68226;BME280;55045;49.410;11.030;2023-05-02T02:34:59;98138.91;;;5.41;100.00
68226;BME280;55045;49.410;11.030;2023-05-02T02:38:11;98147.75;;;5.31;100.00
68226;BME280;55045;49.410;11.030;2023-05-02T02:41:22;98146.25;;;5.24;100.00
68226;BME280;55045;49.410;11.030;2023-05-02T02:44:35;98143.47;;;5.32;100.00
68226;BME280;55045;49.410;11.030;2023-05-02T02:47:49;98144.56;;;5.23;100.00
68226;BME280;55045;49.410;11.030;2023-05-02T02:50:58;98148.06;;;5.19;100.00
68226;BME280;55045;49.410;11.030;2023-05-02T02:54:12;98159.09;;;5.24;100.00
68226;BME280;55045;49.410;11.030;2023-05-02T02:57:40;98172.78;;;5.25;100.00
68226;BME280;55045;49.410;11.030;2023-05-02T03:00:47;98171.53;;;5.07;100.00
68226;BME280;55045;49.410;11.030;2023-05-02T03:03:53;98181.09;;;5.02;100.00
68226;BME280;55045;49.410;11.030;2023-05-02T03:07:00;98190.53;;;5.01;100.00
68226;BME280;55045;49.410;11.030;2023-05-02T03:10:07;98192.28;;;4.99;100.00
68226;BME280;55045;49.410;11.030;2023-05-02T03:13:11;98198.88;;;4.75;100.00
68226;BME280;55045;49.410;11.030;2023-05-02T03:16:35;98206.09;;;4.95;100.00
68226;BME280;55045;49.410;11.030;2023-05-02T03:19:43;98207.59;;;4.68;100.00
68226;BME280;55045;49.410;11.030;2023-05-02T03:22:47;98216.19;;;4.67;100.00
68226;BME280;55045;49.410;11.030;2023-05-02T03:25:51;98217.03;;;4.68;100.00
68226;BME280;55045;49.410;11.030;2023-05-02T03:28:58;98221.19;;;4.73;100.00
68226;BME280;55045;49.410;11.030;2023-05-02T03:34:44;98220.03;;;4.48;100.00
68226;BME280;55045;49.410;11.030;2023-05-02T03:37:48;98225.81;;;4.57;100.00
68226;BME280;55045;49.410;11.030;2023-05-02T03:40:51;98223.63;;;4.78;100.00
68226;BME280;55045;49.410;11.030;2023-05-02T03:43:55;98216.81;;;4.38;100.00
68226;BME280;55045;49.410;11.030;2023-05-02T03:47:00;98223.44;;;4.50;100.00
68226;BME280;55045;49.410;11.030;2023-05-02T03:50:11;98221.97;;;4.40;100.00
68226;BME280;55045;49.410;11.030;2023-05-02T03:53:14;98220.13;;;4.45;100.00
68226;BME280;55045;49.410;11.030;2023-05-02T03:56:25;98228.81;;;4.38;100.00
68226;BME280;55045;49.410;11.030;2023-05-02T03:59:44;98237.13;;;4.49;100.00
68226;BME280;55045;49.410;11.030;2023-05-02T04:03:00;98234.31;;;4.59;100.00
68226;BME280;55045;49.410;11.030;2023-05-02T04:06:06;98242.03;;;4.61;100.00
68226;BME280;55045;49.410;11.030;2023-05-02T04:09:10;98248.72;;;4.67;100.00
68226;BME280;55045;49.410;11.030;2023-05-02T04:12:20;98245.97;;;4.76;100.00
68226;BME280;55045;49.410;11.030;2023-05-02T04:15:26;98254.66;;;4.70;100.00
68226;BME280;55045;49.410;11.030;2023-05-02T04:18:29;98256.22;;;4.76;100.00
68226;BME280;55045;49.410;11.030;2023-05-02T04:21:36;98255.19;;;4.84;100.00
68226;BME280;55045;49.410;11.030;2023-05-02T04:24:41;98260.97;;;4.94;100.00
68226;BME280;55045;49.410;11.030;2023-05-02T04:27:44;98257.28;;;5.04;100.00
68226;BME280;55045;49.410;11.030;2023-05-02T04:30:51;98264.44;;;4.91;100.00
68226;BME280;55045;49.410;11.030;2023-05-02T04:33:57;98270.94;;;5.06;100.00
68226;BME280;55045;49.410;11.030;2023-05-02T04:37:06;98278.22;;;5.25;100.00
68226;BME280;55045;49.410;11.030;2023-05-02T04:40:11;98278.25;;;5.23;100.00
68226;BME280;55045;49.410;11.030;2023-05-02T04:43:14;98282.34;;;5.32;100.00
68226;BME280;55045;49.410;11.030;2023-05-02T04:46:23;98285.00;;;5.27;100.00
68226;BME280;55045;49.410;11.030;2023-05-02T04:49:27;98229.19;;;5.31;100.00
68226;BME280;55045;49.410;11.030;2023-05-02T04:52:31;98281.66;;;6.23;100.00
68226;BME280;55045;49.410;11.030;2023-05-02T04:55:34;98297.25;;;5.52;100.00
68226;BME280;55045;49.410;11.030;2023-05-02T04:58:38;98295.19;;;5.66;100.00
68226;BME280;55045;49.410;11.030;2023-05-02T05:01:43;98299.97;;;5.79;100.00
68226;BME280;55045;49.410;11.030;2023-05-02T05:04:47;98294.56;;;5.90;100.00
68226;BME280;55045;49.410;11.030;2023-05-02T05:07:53;98311.47;;;6.00;100.00
68226;BME280;55045;49.410;11.030;2023-05-02T05:10:58;98307.50;;;6.20;100.00
68226;BME280;55045;49.410;11.030;2023-05-02T05:14:02;98302.19;;;6.26;100.00
68226;BME280;55045;49.410;11.030;2023-05-02T05:17:08;98311.31;;;6.06;100.00
68226;BME280;55045;49.410;11.030;2023-05-02T05:20:12;98305.97;;;6.14;100.00
68226;BME280;55045;49.410;11.030;2023-05-02T05:23:17;98318.19;;;6.37;100.00
68226;BME280;55045;49.410;11.030;2023-05-02T05:26:20;98314.88;;;6.32;100.00
68226;BME280;55045;49.410;11.030;2023-05-02T05:29:25;98314.59;;;6.43;100.00
68226;BME280;55045;49.410;11.030;2023-05-02T05:32:29;98321.41;;;6.75;100.00
68226;BME280;55045;49.410;11.030;2023-05-02T05:35:32;98320.09;;;6.60;100.00
68226;BME280;55045;49.410;11.030;2023-05-02T05:38:38;98315.69;;;6.63;100.00
68226;BME280;55045;49.410;11.030;2023-05-02T05:41:43;98324.25;;;6.66;100.00
68226;BME280;55045;49.410;11.030;2023-05-02T05:44:48;98317.56;;;6.88;100.00
68226;BME280;55045;49.410;11.030;2023-05-02T05:47:52;98302.44;;;6.77;100.00
68226;BME280;55045;49.410;11.030;2023-05-02T05:51:02;98328.41;;;6.99;100.00
68226;BME280;55045;49.410;11.030;2023-05-02T05:54:07;98335.25;;;7.00;100.00
68226;BME280;55045;49.410;11.030;2023-05-02T05:57:11;98334.91;;;7.39;100.00
68226;BME280;55045;49.410;11.030;2023-05-02T06:00:16;98339.28;;;7.37;100.00
68226;BME280;55045;49.410;11.030;2023-05-02T06:03:23;98327.25;;;7.36;100.00
68226;BME280;55045;49.410;11.030;2023-05-02T06:06:27;98336.94;;;7.29;100.00
68226;BME280;55045;49.410;11.030;2023-05-02T06:09:32;98332.59;;;7.30;100.00
68226;BME280;55045;49.410;11.030;2023-05-02T06:12:35;98346.84;;;7.41;100.00
68226;BME280;55045;49.410;11.030;2023-05-02T06:15:39;98352.75;;;7.71;100.00
68226;BME280;55045;49.410;11.030;2023-05-02T06:18:43;98356.28;;;7.69;100.00
68226;BME280;55045;49.410;11.030;2023-05-02T06:21:48;98365.78;;;7.68;100.00
68226;BME280;55045;49.410;11.030;2023-05-02T06:24:53;98368.97;;;7.75;100.00
68226;BME280;55045;49.410;11.030;2023-05-02T06:27:56;98373.41;;;7.98;100.00
68226;BME280;55045;49.410;11.030;2023-05-02T06:31:00;98384.09;;;7.87;100.00
68226;BME280;55045;49.410;11.030;2023-05-02T06:34:05;98386.88;;;8.06;100.00
68226;BME280;55045;49.410;11.030;2023-05-02T06:37:08;98392.03;;;8.07;100.00
68226;BME280;55045;49.410;11.030;2023-05-02T06:40:13;98396.81;;;8.18;100.00
68226;BME280;55045;49.410;11.030;2023-05-02T06:43:17;98386.44;;;8.45;100.00
68226;BME280;55045;49.410;11.030;2023-05-02T06:46:20;98400.72;;;8.55;100.00
68226;BME280;55045;49.410;11.030;2023-05-02T06:49:24;98408.03;;;8.44;100.00
68226;BME280;55045;49.410;11.030;2023-05-02T06:52:28;98402.31;;;8.59;100.00
68226;BME280;55045;49.410;11.030;2023-05-02T06:55:32;98409.19;;;9.07;100.00
68226;BME280;55045;49.410;11.030;2023-05-02T06:58:36;98410.53;;;8.70;100.00
68226;BME280;55045;49.410;11.030;2023-05-02T07:01:39;98409.13;;;8.85;100.00
68226;BME280;55045;49.410;11.030;2023-05-02T07:04:42;98417.06;;;8.80;100.00
68226;BME280;55045;49.410;11.030;2023-05-02T07:07:46;98425.13;;;9.41;100.00
68226;BME280;55045;49.410;11.030;2023-05-02T07:10:51;98428.97;;;8.84;100.00
68226;BME280;55045;49.410;11.030;2023-05-02T07:13:54;98439.91;;;8.92;100.00
68226;BME280;55045;49.410;11.030;2023-05-02T07:16:57;98435.88;;;9.07;100.00
68226;BME280;55045;49.410;11.030;2023-05-02T07:20:00;98441.34;;;9.23;100.00
68226;BME280;55045;49.410;11.030;2023-05-02T07:23:05;98434.97;;;9.10;100.00
68226;BME280;55045;49.410;11.030;2023-05-02T07:26:09;98452.59;;;9.22;100.00
68226;BME280;55045;49.410;11.030;2023-05-02T07:29:12;98447.19;;;9.28;100.00
68226;BME280;55045;49.410;11.030;2023-05-02T07:32:16;98450.13;;;9.19;100.00
68226;BME280;55045;49.410;11.030;2023-05-02T07:35:20;98444.16;;;9.40;100.00
68226;BME280;55045;49.410;11.030;2023-05-02T07:38:23;98448.50;;;9.62;100.00
68226;BME280;55045;49.410;11.030;2023-05-02T07:41:28;98445.00;;;9.41;100.00
68226;BME280;55045;49.410;11.030;2023-05-02T07:44:31;98453.06;;;9.55;100.00
68226;BME280;55045;49.410;11.030;2023-05-02T07:47:35;98458.44;;;9.94;100.00
68226;BME280;55045;49.410;11.030;2023-05-02T07:50:39;98450.19;;;9.63;100.00
68226;BME280;55045;49.410;11.030;2023-05-02T07:53:42;98463.69;;;9.71;100.00
68226;BME280;55045;49.410;11.030;2023-05-02T07:56:47;98464.47;;;9.49;100.00
68226;BME280;55045;49.410;11.030;2023-05-02T07:59:51;98473.72;;;9.57;100.00
68226;BME280;55045;49.410;11.030;2023-05-02T08:02:54;98484.47;;;9.46;100.00
68226;BME280;55045;49.410;11.030;2023-05-02T08:05:57;98494.19;;;9.41;100.00
68226;BME280;55045;49.410;11.030;2023-05-02T08:09:03;98497.38;;;9.47;100.00
68226;BME280;55045;49.410;11.030;2023-05-02T08:12:07;98504.13;;;9.51;100.00
68226;BME280;55045;49.410;11.030;2023-05-02T08:15:11;98514.97;;;9.38;100.00
68226;BME280;55045;49.410;11.030;2023-05-02T08:18:14;98518.66;;;9.32;100.00
68226;BME280;55045;49.410;11.030;2023-05-02T08:21:18;98521.56;;;9.46;100.00
68226;BME280;55045;49.410;11.030;2023-05-02T08:24:21;98515.38;;;9.27;100.00
68226;BME280;55045;49.410;11.030;2023-05-02T08:27:26;98517.28;;;9.91;100.00
68226;BME280;55045;49.410;11.030;2023-05-02T08:30:29;98522.75;;;9.38;100.00
68226;BME280;55045;49.410;11.030;2023-05-02T08:33:33;98521.66;;;9.67;100.00
68226;BME280;55045;49.410;11.030;2023-05-02T08:36:36;98520.97;;;9.85;100.00
68226;BME280;55045;49.410;11.030;2023-05-02T08:39:39;98513.47;;;9.77;100.00
68226;BME280;55045;49.410;11.030;2023-05-02T08:42:43;98516.75;;;10.04;100.00
68226;BME280;55045;49.410;11.030;2023-05-02T08:45:48;98507.09;;;9.86;100.00
68226;BME280;55045;49.410;11.030;2023-05-02T08:48:54;98506.69;;;9.97;100.00
68226;BME280;55045;49.410;11.030;2023-05-02T08:52:00;98506.97;;;10.11;100.00
68226;BME280;55045;49.410;11.030;2023-05-02T08:55:05;98492.69;;;10.01;100.00
68226;BME280;55045;49.410;11.030;2023-05-02T08:58:11;98508.47;;;10.17;100.00
68226;BME280;55045;49.410;11.030;2023-05-02T09:01:18;98512.63;;;10.22;100.00
68226;BME280;55045;49.410;11.030;2023-05-02T09:04:29;98518.53;;;10.46;100.00
68226;BME280;55045;49.410;11.030;2023-05-02T09:07:43;98497.03;;;10.64;100.00
68226;BME280;55045;49.410;11.030;2023-05-02T09:10:46;98519.53;;;11.23;100.00
68226;BME280;55045;49.410;11.030;2023-05-02T09:13:53;98512.16;;;11.33;100.00
68226;BME280;55045;49.410;11.030;2023-05-02T09:17:00;98503.44;;;11.54;100.00
68226;BME280;55045;49.410;11.030;2023-05-02T09:20:09;98514.06;;;12.05;100.00
68226;BME280;55045;49.410;11.030;2023-05-02T09:23:13;98508.97;;;11.66;100.00
68226;BME280;55045;49.410;11.030;2023-05-02T09:26:18;98504.56;;;12.04;100.00
68226;BME280;55045;49.410;11.030;2023-05-02T09:29:23;98509.31;;;12.49;100.00
68226;BME280;55045;49.410;11.030;2023-05-02T09:35:03;98504.69;;;12.72;100.00
68226;BME280;55045;49.410;11.030;2023-05-02T09:38:18;98502.69;;;12.94;100.00
68226;BME280;55045;49.410;11.030;2023-05-02T09:41:21;98502.28;;;13.19;100.00
68226;BME280;55045;49.410;11.030;2023-05-02T09:44:26;98498.31;;;13.61;100.00
68226;BME280;55045;49.410;11.030;2023-05-02T09:47:29;98496.69;;;13.09;100.00
68226;BME280;55045;49.410;11.030;2023-05-02T09:50:36;98493.09;;;13.12;100.00
68226;BME280;55045;49.410;11.030;2023-05-02T09:53:42;98496.78;;;14.04;100.00
68226;BME280;55045;49.410;11.030;2023-05-02T09:56:52;98493.97;;;14.23;100.00
68226;BME280;55045;49.410;11.030;2023-05-02T09:59:57;98501.63;;;13.31;100.00
68226;BME280;55045;49.410;11.030;2023-05-02T10:03:01;98495.72;;;13.27;100.00
68226;BME280;55045;49.410;11.030;2023-05-02T10:06:07;98499.88;;;13.79;100.00
68226;BME280;55045;49.410;11.030;2023-05-02T10:09:12;98457.53;;;13.60;100.00
68226;BME280;55045;49.410;11.030;2023-05-02T10:12:23;98510.66;;;13.89;100.00
68226;BME280;55045;49.410;11.030;2023-05-02T10:15:28;98516.53;;;14.24;100.00
68226;BME280;55045;49.410;11.030;2023-05-02T10:18:40;98508.31;;;13.52;100.00
68226;BME280;55045;49.410;11.030;2023-05-02T10:21:46;98488.78;;;14.07;100.00
68226;BME280;55045;49.410;11.030;2023-05-02T10:24:49;98507.81;;;13.93;100.00
68226;BME280;55045;49.410;11.030;2023-05-02T10:27:55;98493.75;;;13.96;100.00
68226;BME280;55045;49.410;11.030;2023-05-02T10:30:59;98506.63;;;13.51;100.00
68226;BME280;55045;49.410;11.030;2023-05-02T10:34:04;98505.09;;;13.79;100.00
68226;BME280;55045;49.410;11.030;2023-05-02T10:37:12;98501.72;;;14.84;100.00
68226;BME280;55045;49.410;11.030;2023-05-02T10:40:17;98498.97;;;14.11;100.00
68226;BME280;55045;49.410;11.030;2023-05-02T10:43:23;98500.88;;;14.24;100.00
68226;BME280;55045;49.410;11.030;2023-05-02T10:46:30;98468.41;;;14.88;100.00
68226;BME280;55045;49.410;11.030;2023-05-02T10:49:48;98492.16;;;13.77;100.00
68226;BME280;55045;49.410;11.030;2023-05-02T10:52:53;98481.53;;;14.12;100.00
68226;BME280;55045;49.410;11.030;2023-05-02T10:56:16;98483.88;;;14.77;100.00
68226;BME280;55045;49.410;11.030;2023-05-02T10:59:26;98411.59;;;14.19;100.00
68226;BME280;55045;49.410;11.030;2023-05-02T11:02:48;98453.44;;;14.47;100.00
68226;BME280;55045;49.410;11.030;2023-05-02T11:06:10;98470.41;;;15.13;100.00
68226;BME280;55045;49.410;11.030;2023-05-02T11:09:31;98470.94;;;14.75;100.00
68226;BME280;55045;49.410;11.030;2023-05-02T11:12:44;98470.00;;;15.47;100.00
68226;BME280;55045;49.410;11.030;2023-05-02T11:15:55;98456.28;;;15.30;100.00
68226;BME280;55045;49.410;11.030;2023-05-02T11:18:59;98452.00;;;15.43;100.00
68226;BME280;55045;49.410;11.030;2023-05-02T11:22:30;98455.53;;;15.27;100.00
68226;BME280;55045;49.410;11.030;2023-05-02T11:25:39;98457.63;;;15.78;100.00
68226;BME280;55045;49.410;11.030;2023-05-02T11:28:44;98460.38;;;14.91;100.00
68226;BME280;55045;49.410;11.030;2023-05-02T11:31:52;98457.25;;;15.14;100.00
68226;BME280;55045;49.410;11.030;2023-05-02T11:34:56;98380.19;;;14.93;100.00
68226;BME280;55045;49.410;11.030;2023-05-02T11:38:02;98455.25;;;15.46;100.00
68226;BME280;55045;49.410;11.030;2023-05-02T11:41:07;98453.03;;;15.12;100.00
68226;BME280;55045;49.410;11.030;2023-05-02T11:44:10;98449.00;;;14.63;100.00
68226;BME280;55045;49.410;11.030;2023-05-02T11:47:14;98371.50;;;14.05;100.00
68226;BME280;55045;49.410;11.030;2023-05-02T11:50:17;98448.09;;;15.07;100.00
68226;BME280;55045;49.410;11.030;2023-05-02T11:53:22;98440.09;;;14.82;100.00
68226;BME280;55045;49.410;11.030;2023-05-02T11:56:27;98445.28;;;14.96;100.00
68226;BME280;55045;49.410;11.030;2023-05-02T11:59:48;98439.47;;;14.48;100.00
68226;BME280;55045;49.410;11.030;2023-05-02T12:02:51;98473.34;;;14.78;100.00
68226;BME280;55045;49.410;11.030;2023-05-02T12:05:56;98468.50;;;14.86;100.00
68226;BME280;55045;49.410;11.030;2023-05-02T12:09:06;98404.03;;;14.14;100.00
68226;BME280;55045;49.410;11.030;2023-05-02T12:12:11;98447.22;;;14.34;100.00
68226;BME280;55045;49.410;11.030;2023-05-02T12:15:15;98445.25;;;14.53;100.00
68226;BME280;55045;49.410;11.030;2023-05-02T12:18:20;98470.94;;;14.75;100.00
68226;BME280;55045;49.410;11.030;2023-05-02T12:21:25;98492.13;;;14.85;100.00
68226;BME280;55045;49.410;11.030;2023-05-02T12:24:30;98490.78;;;14.63;100.00
68226;BME280;55045;49.410;11.030;2023-05-02T12:27:35;98460.09;;;14.37;100.00
68226;BME280;55045;49.410;11.030;2023-05-02T12:30:38;98405.38;;;14.80;100.00
68226;BME280;55045;49.410;11.030;2023-05-02T12:33:42;98489.13;;;15.48;100.00
68226;BME280;55045;49.410;11.030;2023-05-02T12:36:46;98500.63;;;15.03;100.00
68226;BME280;55045;49.410;11.030;2023-05-02T12:39:49;98500.88;;;14.84;100.00
68226;BME280;55045;49.410;11.030;2023-05-02T12:42:58;98506.50;;;15.06;100.00
68226;BME280;55045;49.410;11.030;2023-05-02T12:46:09;98481.06;;;14.51;100.00
68226;BME280;55045;49.410;11.030;2023-05-02T12:49:12;98513.84;;;14.39;100.00
68226;BME280;55045;49.410;11.030;2023-05-02T12:52:15;98518.84;;;14.28;100.00
68226;BME280;55045;49.410;11.030;2023-05-02T12:55:20;98496.16;;;13.36;100.00
68226;BME280;55045;49.410;11.030;2023-05-02T12:58:26;98535.50;;;12.96;100.00
68226;BME280;55045;49.410;11.030;2023-05-02T13:01:31;98544.81;;;12.67;100.00
68226;BME280;55045;49.410;11.030;2023-05-02T13:04:35;98570.09;;;12.29;100.00
68226;BME280;55045;49.410;11.030;2023-05-02T13:07:40;98575.75;;;12.01;100.00
68226;BME280;55045;49.410;11.030;2023-05-02T13:10:43;98591.91;;;12.08;100.00
68226;BME280;55045;49.410;11.030;2023-05-02T13:13:47;98555.91;;;11.42;100.00
68226;BME280;55045;49.410;11.030;2023-05-02T13:16:50;98601.47;;;11.49;100.00
68226;BME280;55045;49.410;11.030;2023-05-02T13:19:56;98533.84;;;10.93;100.00
68226;BME280;55045;49.410;11.030;2023-05-02T13:23:05;98613.72;;;11.27;100.00
68226;BME280;55045;49.410;11.030;2023-05-02T13:26:08;98622.25;;;11.49;100.00
68226;BME280;55045;49.410;11.030;2023-05-02T13:29:12;98593.47;;;11.15;100.00
68226;BME280;55045;49.410;11.030;2023-05-02T13:32:16;98610.13;;;10.89;100.00
68226;BME280;55045;49.410;11.030;2023-05-02T13:35:19;98612.13;;;10.82;100.00
68226;BME280;55045;49.410;11.030;2023-05-02T13:38:23;98601.91;;;10.79;100.00
68226;BME280;55045;49.410;11.030;2023-05-02T13:41:26;98608.31;;;10.49;100.00
68226;BME280;55045;49.410;11.030;2023-05-02T13:44:31;98600.97;;;10.60;100.00
68226;BME280;55045;49.410;11.030;2023-05-02T13:47:35;98617.75;;;10.93;100.00
68226;BME280;55045;49.410;11.030;2023-05-02T13:50:40;98609.75;;;10.78;100.00
68226;BME280;55045;49.410;11.030;2023-05-02T13:53:43;98613.66;;;11.08;100.00
68226;BME280;55045;49.410;11.030;2023-05-02T13:56:46;98605.94;;;11.07;100.00
68226;BME280;55045;49.410;11.030;2023-05-02T13:59:51;98610.13;;;11.50;100.00
68226;BME280;55045;49.410;11.030;2023-05-02T14:02:54;98599.31;;;11.79;100.00
68226;BME280;55045;49.410;11.030;2023-05-02T14:05:58;98566.94;;;12.23;100.00
68226;BME280;55045;49.410;11.030;2023-05-02T14:09:01;98564.66;;;12.87;100.00
68226;BME280;55045;49.410;11.030;2023-05-02T14:12:05;98556.50;;;13.11;100.00
68226;BME280;55045;49.410;11.030;2023-05-02T14:15:11;98531.81;;;13.18;100.00
68226;BME280;55045;49.410;11.030;2023-05-02T14:18:14;98546.91;;;13.62;100.00
68226;BME280;55045;49.410;11.030;2023-05-02T14:21:18;98550.53;;;13.26;100.00
68226;BME280;55045;49.410;11.030;2023-05-02T14:24:21;98542.47;;;13.79;100.00
68226;BME280;55045;49.410;11.030;2023-05-02T14:27:25;98544.06;;;14.13;100.00
68226;BME280;55045;49.410;11.030;2023-05-02T14:30:29;98523.69;;;13.73;100.00
68226;BME280;55045;49.410;11.030;2023-05-02T14:33:33;98535.38;;;13.97;100.00
68226;BME280;55045;49.410;11.030;2023-05-02T14:36:36;98539.59;;;13.84;100.00
68226;BME280;55045;49.410;11.030;2023-05-02T14:39:40;98541.59;;;13.79;100.00
68226;BME280;55045;49.410;11.030;2023-05-02T14:42:45;98486.72;;;13.82;100.00
68226;BME280;55045;49.410;11.030;2023-05-02T14:45:50;98523.53;;;13.92;100.00
68226;BME280;55045;49.410;11.030;2023-05-02T14:48:53;98540.84;;;14.08;100.00
68226;BME280;55045;49.410;11.030;2023-05-02T14:51:56;98535.19;;;14.32;100.00
68226;BME280;55045;49.410;11.030;2023-05-02T14:55:00;98536.75;;;14.50;100.00
68226;BME280;55045;49.410;11.030;2023-05-02T14:58:04;98538.31;;;14.68;100.00
68226;BME280;55045;49.410;11.030;2023-05-02T15:01:15;98530.66;;;14.20;100.00
68226;BME280;55045;49.410;11.030;2023-05-02T15:04:19;98544.59;;;14.34;100.00
68226;BME280;55045;49.410;11.030;2023-05-02T15:07:23;98540.72;;;14.41;100.00
68226;BME280;55045;49.410;11.030;2023-05-02T15:10:27;98543.34;;;14.41;100.00
68226;BME280;55045;49.410;11.030;2023-05-02T15:13:30;98540.72;;;14.57;100.00
68226;BME280;55045;49.410;11.030;2023-05-02T15:16:35;98541.13;;;14.80;100.00
68226;BME280;55045;49.410;11.030;2023-05-02T15:19:40;98541.13;;;14.65;100.00
68226;BME280;55045;49.410;11.030;2023-05-02T15:22:43;98538.38;;;14.37;100.00
68226;BME280;55045;49.410;11.030;2023-05-02T15:25:46;98544.47;;;14.67;100.00
68226;BME280;55045;49.410;11.030;2023-05-02T15:28:50;98536.28;;;14.74;100.00
68226;BME280;55045;49.410;11.030;2023-05-02T15:34:44;98535.69;;;14.54;100.00
68226;BME280;55045;49.410;11.030;2023-05-02T15:37:47;98536.34;;;14.42;100.00
68226;BME280;55045;49.410;11.030;2023-05-02T15:40:54;98519.38;;;14.19;100.00
68226;BME280;55045;49.410;11.030;2023-05-02T15:43:58;98545.56;;;14.93;100.00
68226;BME280;55045;49.410;11.030;2023-05-02T15:47:02;98537.84;;;14.62;100.00
68226;BME280;55045;49.410;11.030;2023-05-02T15:50:10;98542.56;;;14.99;100.00
68226;BME280;55045;49.410;11.030;2023-05-02T15:53:14;98535.03;;;14.95;100.00
68226;BME280;55045;49.410;11.030;2023-05-02T15:56:17;98550.91;;;14.62;97.58
68226;BME280;55045;49.410;11.030;2023-05-02T15:59:22;98529.69;;;14.82;100.00
68226;BME280;55045;49.410;11.030;2023-05-02T16:02:25;98522.50;;;14.72;98.81
68226;BME280;55045;49.410;11.030;2023-05-02T16:05:29;98536.75;;;14.80;100.00
68226;BME280;55045;49.410;11.030;2023-05-02T16:08:33;98543.75;;;14.80;100.00
68226;BME280;55045;49.410;11.030;2023-05-02T16:11:36;98537.88;;;14.76;93.17
68226;BME280;55045;49.410;11.030;2023-05-02T16:14:39;98535.59;;;15.00;100.00